sensor_id;sensor_type;location;lat;lon;timestamp;temperature;humidity
30150;DHT22;16962;48.646;9.026;2023-02-25T00:00:11;3.00;99.90
30150;DHT22;16962;48.646;9.026;2023-02-25T00:03:25;2.90;99.90
30150;DHT22;16962;48.646;9.026;2023-02-25T00:06:13;2.90;99.90
30150;DHT22;16962;48.646;9.026;2023-02-25T00:09:00;2.80;99.90
30150;DHT22;16962;48.646;9.026;2023-02-25T00:11:48;2.80;99.90
30150;DHT22;16962;48.646;9.026;2023-02-25T00:14:36;2.80;99.90
30150;DHT22;16962;48.646;9.026;2023-02-25T00:17:23;2.80;99.90
30150;DHT22;16962;48.646;9.026;2023-02-25T00:20:13;2.80;99.90
30150;DHT22;16962;48.646;9.026;2023-02-25T00:23:00;2.80;99.90
30150;DHT22;16962;48.646;9.026;2023-02-25T00:26:03;2.80;99.90
30150;DHT22;16962;48.646;9.026;2023-02-25T00:28:51;2.70;99.90
30150;DHT22;16962;48.646;9.026;2023-02-25T00:31:40;2.70;99.90
30150;DHT22;16962;48.646;9.026;2023-02-25T00:34:30;2.80;99.90
30150;DHT22;16962;48.646;9.026;2023-02-25T00:37:18;2.80;99.90
30150;DHT22;16962;48.646;9.026;2023-02-25T00:40:06;2.80;99.90
30150;DHT22;16962;48.646;9.026;2023-02-25T00:43:03;2.90;99.90
30150;DHT22;16962;48.646;9.026;2023-02-25T00:45:50;2.90;99.90
30150;DHT22;16962;48.646;9.026;2023-02-25T00:48:41;2.90;99.90
30150;DHT22;16962;48.646;9.026;2023-02-25T00:51:30;2.90;99.90
30150;DHT22;16962;48.646;9.026;2023-02-25T00:54:17;2.90;99.90
30150;DHT22;16962;48.646;9.026;2023-02-25T00:57:07;2.90;99.90
30150;DHT22;16962;48.646;9.026;2023-02-25T00:59:57;2.90;99.90
30150;DHT22;16962;48.646;9.026;2023-02-25T01:02:44;2.90;99.90
30150;DHT22;16962;48.646;9.026;2023-02-25T01:05:32;2.90;99.90
30150;DHT22;16962;48.646;9.026;2023-02-25T01:08:19;2.90;99.90
30150;DHT22;16962;48.646;9.026;2023-02-25T01:11:24;2.90;99.90
30150;DHT22;16962;48.646;9.026;2023-02-25T01:14:23;2.90;99.90
30150;DHT22;16962;48.646;9.026;2023-02-25T01:17:11;2.90;99.90
30150;DHT22;16962;48.646;9.026;2023-02-25T01:19:58;2.90;99.90
30150;DHT22;16962;48.646;9.026;2023-02-25T01:22:45;2.90;99.90
30150;DHT22;16962;48.646;9.026;2023-02-25T01:25:38;3.00;99.90
30150;DHT22;16962;48.646;9.026;2023-02-25T01:28:35;3.00;99.90
30150;DHT22;16962;48.646;9.026;2023-02-25T01:31:23;3.00;99.90
30150;DHT22;16962;48.646;9.026;2023-02-25T01:34:17;3.00;99.90
30150;DHT22;16962;48.646;9.026;2023-02-25T01:37:04;3.00;99.90
30150;DHT22;16962;48.646;9.026;2023-02-25T01:39:55;3.00;99.90
30150;DHT22;16962;48.646;9.026;2023-02-25T01:42:44;2.90;99.90
30150;DHT22;16962;48.646;9.026;2023-02-25T01:45:31;2.90;99.90
30150;DHT22;16962;48.646;9.026;2023-02-25T01:48:21;2.90;99.90
30150;DHT22;16962;48.646;9.026;2023-02-25T01:51:10;2.90;99.90
30150;DHT22;16962;48.646;9.026;2023-02-25T01:54:02;2.90;99.90
30150;DHT22;16962;48.646;9.026;2023-02-25T01:56:53;2.90;99.90
30150;DHT22;16962;48.646;9.026;2023-02-25T01:59:42;2.90;99.90
30150;DHT22;16962;48.646;9.026;2023-02-25T02:02:30;2.90;99.90
30150;DHT22;16962;48.646;9.026;2023-02-25T02:05:25;2.80;99.90
30150;DHT22;16962;48.646;9.026;2023-02-25T02:08:16;2.80;99.90
30150;DHT22;16962;48.646;9.026;2023-02-25T02:11:05;2.70;99.90
30150;DHT22;16962;48.646;9.026;2023-02-25T02:13:57;2.70;99.90
30150;DHT22;16962;48.646;9.026;2023-02-25T02:22:53;2.60;99.90
30150;DHT22;16962;48.646;9.026;2023-02-25T02:26:15;2.60;99.90
30150;DHT22;16962;48.646;9.026;2023-02-25T02:29:19;2.60;99.90
30150;DHT22;16962;48.646;9.026;2023-02-25T02:32:31;2.60;99.90
30150;DHT22;16962;48.646;9.026;2023-02-25T02:39:01;2.60;99.90
30150;DHT22;16962;48.646;9.026;2023-02-25T02:45:13;2.50;99.90
30150;DHT22;16962;48.646;9.026;2023-02-25T02:48:07;2.50;99.90
30150;DHT22;16962;48.646;9.026;2023-02-25T02:51:00;2.50;99.90
30150;DHT22;16962;48.646;9.026;2023-02-25T02:53:59;2.40;99.90
30150;DHT22;16962;48.646;9.026;2023-02-25T02:56:51;2.40;99.90
30150;DHT22;16962;48.646;9.026;2023-02-25T03:00:05;2.40;99.90
30150;DHT22;16962;48.646;9.026;2023-02-25T03:03:15;2.30;99.90
30150;DHT22;16962;48.646;9.026;2023-02-25T03:06:21;2.20;99.90
30150;DHT22;16962;48.646;9.026;2023-02-25T03:09:24;2.10;99.90
30150;DHT22;16962;48.646;9.026;2023-02-25T03:12:12;2.00;99.90
30150;DHT22;16962;48.646;9.026;2023-02-25T03:14:59;1.90;99.90
30150;DHT22;16962;48.646;9.026;2023-02-25T03:17:55;1.80;99.90
30150;DHT22;16962;48.646;9.026;2023-02-25T03:20:46;1.80;99.90
30150;DHT22;16962;48.646;9.026;2023-02-25T03:23:38;1.80;99.90
30150;DHT22;16962;48.646;9.026;2023-02-25T03:26:29;1.80;99.90
30150;DHT22;16962;48.646;9.026;2023-02-25T03:29:21;1.70;99.90
30150;DHT22;16962;48.646;9.026;2023-02-25T03:32:14;1.80;99.90
30150;DHT22;16962;48.646;9.026;2023-02-25T03:35:06;1.80;99.90
30150;DHT22;16962;48.646;9.026;2023-02-25T03:38:03;1.80;99.90
30150;DHT22;16962;48.646;9.026;2023-02-25T03:40:59;1.90;99.90
30150;DHT22;16962;48.646;9.026;2023-02-25T03:43:55;1.90;99.90
30150;DHT22;16962;48.646;9.026;2023-02-25T03:46:45;1.90;99.90
30150;DHT22;16962;48.646;9.026;2023-02-25T03:49:39;1.90;99.90
30150;DHT22;16962;48.646;9.026;2023-02-25T03:52:29;1.90;99.90
30150;DHT22;16962;48.646;9.026;2023-02-25T03:55:19;1.90;99.90
30150;DHT22;16962;48.646;9.026;2023-02-25T03:58:07;1.90;99.90
30150;DHT22;16962;48.646;9.026;2023-02-25T04:00:57;1.90;99.90
30150;DHT22;16962;48.646;9.026;2023-02-25T04:03:49;1.90;99.90
30150;DHT22;16962;48.646;9.026;2023-02-25T04:06:37;1.90;99.90
30150;DHT22;16962;48.646;9.026;2023-02-25T04:09:24;2.00;99.90
30150;DHT22;16962;48.646;9.026;2023-02-25T04:12:14;1.90;99.90
30150;DHT22;16962;48.646;9.026;2023-02-25T04:15:02;2.00;99.90
30150;DHT22;16962;48.646;9.026;2023-02-25T04:17:52;2.00;99.90
30150;DHT22;16962;48.646;9.026;2023-02-25T04:20:39;2.00;99.90
30150;DHT22;16962;48.646;9.026;2023-02-25T04:23:31;2.00;99.90
30150;DHT22;16962;48.646;9.026;2023-02-25T04:26:20;2.10;99.90
30150;DHT22;16962;48.646;9.026;2023-02-25T04:29:12;2.10;99.90
30150;DHT22;16962;48.646;9.026;2023-02-25T04:32:02;2.00;99.90
30150;DHT22;16962;48.646;9.026;2023-02-25T04:34:51;2.00;99.90
30150;DHT22;16962;48.646;9.026;2023-02-25T04:37:39;2.00;99.90
30150;DHT22;16962;48.646;9.026;2023-02-25T04:40:27;1.90;99.90
30150;DHT22;16962;48.646;9.026;2023-02-25T04:43:15;1.90;99.90
30150;DHT22;16962;48.646;9.026;2023-02-25T04:46:02;1.80;99.90
30150;DHT22;16962;48.646;9.026;2023-02-25T04:48:49;1.80;99.90
30150;DHT22;16962;48.646;9.026;2023-02-25T04:51:37;1.70;99.90
30150;DHT22;16962;48.646;9.026;2023-02-25T04:54:25;1.60;99.90
30150;DHT22;16962;48.646;9.026;2023-02-25T04:57:16;1.50;99.90
30150;DHT22;16962;48.646;9.026;2023-02-25T05:00:06;1.50;99.90
30150;DHT22;16962;48.646;9.026;2023-02-25T05:02:59;1.40;99.90
30150;DHT22;16962;48.646;9.026;2023-02-25T05:06:32;1.40;99.90
30150;DHT22;16962;48.646;9.026;2023-02-25T05:09:20;1.40;99.90
30150;DHT22;16962;48.646;9.026;2023-02-25T05:12:12;1.40;99.90
30150;DHT22;16962;48.646;9.026;2023-02-25T05:15:02;1.30;99.90
30150;DHT22;16962;48.646;9.026;2023-02-25T05:17:51;1.40;99.90
30150;DHT22;16962;48.646;9.026;2023-02-25T05:20:43;1.40;99.90
30150;DHT22;16962;48.646;9.026;2023-02-25T05:23:35;1.30;71.60
30150;DHT22;16962;48.646;9.026;2023-02-25T05:26:23;1.40;1.10
30150;DHT22;16962;48.646;9.026;2023-02-25T05:29:13;1.30;1.00
30150;DHT22;16962;48.646;9.026;2023-02-25T05:32:01;1.30;1.00
30150;DHT22;16962;48.646;9.026;2023-02-25T05:34:49;1.20;99.90
30150;DHT22;16962;48.646;9.026;2023-02-25T05:37:37;1.10;99.90
30150;DHT22;16962;48.646;9.026;2023-02-25T05:40:24;1.10;99.90
30150;DHT22;16962;48.646;9.026;2023-02-25T05:43:15;1.10;99.90
30150;DHT22;16962;48.646;9.026;2023-02-25T05:46:04;1.10;99.90
30150;DHT22;16962;48.646;9.026;2023-02-25T05:48:55;1.10;99.90
30150;DHT22;16962;48.646;9.026;2023-02-25T05:51:44;1.10;1.00
30150;DHT22;16962;48.646;9.026;2023-02-25T05:54:31;1.10;99.90
30150;DHT22;16962;48.646;9.026;2023-02-25T05:57:21;1.10;1.00
30150;DHT22;16962;48.646;9.026;2023-02-25T06:00:10;1.00;90.80
30150;DHT22;16962;48.646;9.026;2023-02-25T06:03:00;1.00;1.00
30150;DHT22;16962;48.646;9.026;2023-02-25T06:05:48;1.00;1.00
30150;DHT22;16962;48.646;9.026;2023-02-25T06:08:40;1.00;1.00
30150;DHT22;16962;48.646;9.026;2023-02-25T06:11:29;1.00;1.00
30150;DHT22;16962;48.646;9.026;2023-02-25T06:14:16;1.00;99.90
30150;DHT22;16962;48.646;9.026;2023-02-25T06:17:03;1.00;99.90
30150;DHT22;16962;48.646;9.026;2023-02-25T06:19:52;0.90;99.90
30150;DHT22;16962;48.646;9.026;2023-02-25T06:22:39;1.00;99.90
30150;DHT22;16962;48.646;9.026;2023-02-25T06:25:26;1.00;99.90
30150;DHT22;16962;48.646;9.026;2023-02-25T06:28:16;1.00;99.90
30150;DHT22;16962;48.646;9.026;2023-02-25T06:31:15;1.10;1.00
30150;DHT22;16962;48.646;9.026;2023-02-25T06:34:05;1.10;99.90
30150;DHT22;16962;48.646;9.026;2023-02-25T06:36:54;1.20;99.90
30150;DHT22;16962;48.646;9.026;2023-02-25T06:39:42;1.20;1.00
30150;DHT22;16962;48.646;9.026;2023-02-25T06:42:29;1.30;1.00
30150;DHT22;16962;48.646;9.026;2023-02-25T06:45:17;1.40;99.90
30150;DHT22;16962;48.646;9.026;2023-02-25T06:48:04;1.40;1.00
30150;DHT22;16962;48.646;9.026;2023-02-25T06:50:52;1.50;90.50
30150;DHT22;16962;48.646;9.026;2023-02-25T06:53:43;1.50;1.00
30150;DHT22;16962;48.646;9.026;2023-02-25T06:56:31;1.50;1.00
30150;DHT22;16962;48.646;9.026;2023-02-25T06:59:18;1.60;99.90
30150;DHT22;16962;48.646;9.026;2023-02-25T07:02:05;1.70;99.90
30150;DHT22;16962;48.646;9.026;2023-02-25T07:04:56;1.90;1.00
30150;DHT22;16962;48.646;9.026;2023-02-25T07:07:43;1.90;99.90
30150;DHT22;16962;48.646;9.026;2023-02-25T07:10:31;2.10;99.90
30150;DHT22;16962;48.646;9.026;2023-02-25T07:13:18;2.30;7.00
30150;DHT22;16962;48.646;9.026;2023-02-25T07:16:27;2.40;1.00
30150;DHT22;16962;48.646;9.026;2023-02-25T07:20:21;2.50;99.90
30150;DHT22;16962;48.646;9.026;2023-02-25T07:28:37;2.80;1.00
30150;DHT22;16962;48.646;9.026;2023-02-25T07:35:44;2.40;99.90
30150;DHT22;16962;48.646;9.026;2023-02-25T07:39:17;2.20;99.90
30150;DHT22;16962;48.646;9.026;2023-02-25T07:42:34;2.00;99.90
30150;DHT22;16962;48.646;9.026;2023-02-25T07:45:25;2.20;99.90
30150;DHT22;16962;48.646;9.026;2023-02-25T07:48:44;2.40;99.90
30150;DHT22;16962;48.646;9.026;2023-02-25T07:59:04;4.40;99.90
30150;DHT22;16962;48.646;9.026;2023-02-25T08:02:00;4.90;99.90
30150;DHT22;16962;48.646;9.026;2023-02-25T08:05:20;4.90;99.90
30150;DHT22;16962;48.646;9.026;2023-02-25T08:09:05;4.70;48.50
30150;DHT22;16962;48.646;9.026;2023-02-25T08:12:40;4.70;1.00
30150;DHT22;16962;48.646;9.026;2023-02-25T08:15:59;4.80;1.00
30150;DHT22;16962;48.646;9.026;2023-02-25T08:18:51;5.10;1.00
30150;DHT22;16962;48.646;9.026;2023-02-25T08:21:47;5.10;1.00
30150;DHT22;16962;48.646;9.026;2023-02-25T08:24:49;5.20;1.00
30150;DHT22;16962;48.646;9.026;2023-02-25T08:32:18;5.90;1.00
30150;DHT22;16962;48.646;9.026;2023-02-25T08:35:10;6.20;99.90
30150;DHT22;16962;48.646;9.026;2023-02-25T08:37:58;6.10;99.90
30150;DHT22;16962;48.646;9.026;2023-02-25T08:44:09;5.30;99.90
30150;DHT22;16962;48.646;9.026;2023-02-25T08:46:58;4.90;99.90
30150;DHT22;16962;48.646;9.026;2023-02-25T08:49:52;4.50;99.90
30150;DHT22;16962;48.646;9.026;2023-02-25T08:52:47;4.40;99.90
30150;DHT22;16962;48.646;9.026;2023-02-25T08:55:45;4.10;99.90
30150;DHT22;16962;48.646;9.026;2023-02-25T08:58:37;3.80;1.00
30150;DHT22;16962;48.646;9.026;2023-02-25T09:01:46;3.70;1.00
30150;DHT22;16962;48.646;9.026;2023-02-25T09:04:41;3.60;1.00
30150;DHT22;16962;48.646;9.026;2023-02-25T09:07:39;3.70;1.00
30150;DHT22;16962;48.646;9.026;2023-02-25T09:10:29;3.70;1.00
30150;DHT22;16962;48.646;9.026;2023-02-25T09:18:49;3.90;1.00
30150;DHT22;16962;48.646;9.026;2023-02-25T09:22:13;4.10;1.00
30150;DHT22;16962;48.646;9.026;2023-02-25T09:25:34;4.30;1.00
30150;DHT22;16962;48.646;9.026;2023-02-25T09:29:06;4.50;1.00
30150;DHT22;16962;48.646;9.026;2023-02-25T09:32:39;4.70;1.00
30150;DHT22;16962;48.646;9.026;2023-02-25T09:35:44;5.40;99.90
30150;DHT22;16962;48.646;9.026;2023-02-25T09:38:57;6.40;99.90
30150;DHT22;16962;48.646;9.026;2023-02-25T10:07:17;7.60;99.90
30150;DHT22;16962;48.646;9.026;2023-02-25T10:25:49;8.10;99.90
30150;DHT22;16962;48.646;9.026;2023-02-25T10:32:35;8.30;99.90
30150;DHT22;16962;48.646;9.026;2023-02-25T10:35:54;7.80;99.90
30150;DHT22;16962;48.646;9.026;2023-02-25T10:39:31;7.60;99.90
30150;DHT22;16962;48.646;9.026;2023-02-25T10:42:38;6.90;99.90
30150;DHT22;16962;48.646;9.026;2023-02-25T10:49:24;6.00;99.90
30150;DHT22;16962;48.646;9.026;2023-02-25T11:01:25;5.30;99.90
30150;DHT22;16962;48.646;9.026;2023-02-25T11:13:44;5.90;99.90
30150;DHT22;16962;48.646;9.026;2023-02-25T11:24:36;9.20;99.90
30150;DHT22;16962;48.646;9.026;2023-02-25T11:27:33;9.70;99.90
30150;DHT22;16962;48.646;9.026;2023-02-25T11:30:33;9.20;99.90
30150;DHT22;16962;48.646;9.026;2023-02-25T11:33:29;8.70;99.90
30150;DHT22;16962;48.646;9.026;2023-02-25T11:36:22;8.20;99.90
30150;DHT22;16962;48.646;9.026;2023-02-25T11:42:20;7.00;98.20
30150;DHT22;16962;48.646;9.026;2023-02-25T11:45:16;6.90;99.90
30150;DHT22;16962;48.646;9.026;2023-02-25T11:48:12;7.00;99.90
30150;DHT22;16962;48.646;9.026;2023-02-25T11:54:25;7.00;98.50
30150;DHT22;16962;48.646;9.026;2023-02-25T12:03:50;6.70;99.90
30150;DHT22;16962;48.646;9.026;2023-02-25T12:10:38;6.60;99.90
30150;DHT22;16962;48.646;9.026;2023-02-25T12:23:22;6.10;99.90
30150;DHT22;16962;48.646;9.026;2023-02-25T12:32:33;5.60;99.90
30150;DHT22;16962;48.646;9.026;2023-02-25T12:35:46;5.60;99.90
30150;DHT22;16962;48.646;9.026;2023-02-25T12:39:05;5.70;99.90
30150;DHT22;16962;48.646;9.026;2023-02-25T12:45:24;5.90;99.90
30150;DHT22;16962;48.646;9.026;2023-02-25T12:48:23;5.90;99.90
30150;DHT22;16962;48.646;9.026;2023-02-25T12:51:30;5.70;99.90
30150;DHT22;16962;48.646;9.026;2023-02-25T13:10:57;5.60;99.90
30150;DHT22;16962;48.646;9.026;2023-02-25T13:42:51;4.20;99.90
30150;DHT22;16962;48.646;9.026;2023-02-25T13:45:45;3.80;99.90
30150;DHT22;16962;48.646;9.026;2023-02-25T13:52:23;3.50;99.90
30150;DHT22;16962;48.646;9.026;2023-02-25T14:11:41;3.90;99.90
30150;DHT22;16962;48.646;9.026;2023-02-25T14:22:16;4.50;99.90
30150;DHT22;16962;48.646;9.026;2023-02-25T14:25:21;4.90;99.90
30150;DHT22;16962;48.646;9.026;2023-02-25T14:40:19;5.20;99.90
30150;DHT22;16962;48.646;9.026;2023-02-25T14:43:47;5.00;99.90
30150;DHT22;16962;48.646;9.026;2023-02-25T15:21:50;6.50;99.90
30150;DHT22;16962;48.646;9.026;2023-02-25T15:25:35;6.40;99.90
30150;DHT22;16962;48.646;9.026;2023-02-25T15:31:29;6.60;99.90
30150;DHT22;16962;48.646;9.026;2023-02-25T15:37:29;7.10;99.90
30150;DHT22;16962;48.646;9.026;2023-02-25T15:51:57;5.70;99.90
30150;DHT22;16962;48.646;9.026;2023-02-25T15:54:46;5.30;99.90
30150;DHT22;16962;48.646;9.026;2023-02-25T15:57:37;4.90;99.90
30150;DHT22;16962;48.646;9.026;2023-02-25T16:00:54;4.70;99.90
30150;DHT22;16962;48.646;9.026;2023-02-25T16:03:42;4.40;99.90
30150;DHT22;16962;48.646;9.026;2023-02-25T16:06:38;4.30;99.90
30150;DHT22;16962;48.646;9.026;2023-02-25T16:09:26;4.20;99.90
30150;DHT22;16962;48.646;9.026;2023-02-25T16:12:14;4.20;99.90
30150;DHT22;16962;48.646;9.026;2023-02-25T16:15:03;4.10;99.90
30150;DHT22;16962;48.646;9.026;2023-02-25T16:17:51;4.00;99.90
30150;DHT22;16962;48.646;9.026;2023-02-25T16:20:47;4.00;99.90
30150;DHT22;16962;48.646;9.026;2023-02-25T16:23:39;4.00;99.90
30150;DHT22;16962;48.646;9.026;2023-02-25T16:36:25;3.80;99.90
30150;DHT22;16962;48.646;9.026;2023-02-25T16:39:20;3.80;99.90
30150;DHT22;16962;48.646;9.026;2023-02-25T16:42:15;3.70;99.90
30150;DHT22;16962;48.646;9.026;2023-02-25T16:45:04;3.70;99.90
30150;DHT22;16962;48.646;9.026;2023-02-25T16:48:03;3.60;99.90
30150;DHT22;16962;48.646;9.026;2023-02-25T16:50:54;3.50;99.90
30150;DHT22;16962;48.646;9.026;2023-02-25T16:53:45;3.40;99.90
30150;DHT22;16962;48.646;9.026;2023-02-25T16:56:34;3.30;99.90
30150;DHT22;16962;48.646;9.026;2023-02-25T16:59:24;3.20;99.90
30150;DHT22;16962;48.646;9.026;2023-02-25T17:05:02;2.90;99.90
30150;DHT22;16962;48.646;9.026;2023-02-25T17:07:57;2.80;99.90
30150;DHT22;16962;48.646;9.026;2023-02-25T17:10:48;2.60;99.90
30150;DHT22;16962;48.646;9.026;2023-02-25T17:13:39;2.60;99.90
30150;DHT22;16962;48.646;9.026;2023-02-25T17:16:41;2.50;99.90
30150;DHT22;16962;48.646;9.026;2023-02-25T17:19:29;2.50;99.90
30150;DHT22;16962;48.646;9.026;2023-02-25T17:22:20;2.50;99.90
30150;DHT22;16962;48.646;9.026;2023-02-25T17:25:11;2.40;99.90
30150;DHT22;16962;48.646;9.026;2023-02-25T17:28:05;2.30;99.90
30150;DHT22;16962;48.646;9.026;2023-02-25T17:31:08;2.20;99.90
30150;DHT22;16962;48.646;9.026;2023-02-25T17:36:45;1.90;1.00
30150;DHT22;16962;48.646;9.026;2023-02-25T17:39:33;1.90;1.00
30150;DHT22;16962;48.646;9.026;2023-02-25T17:42:36;2.00;1.00
30150;DHT22;16962;48.646;9.026;2023-02-25T17:45:43;2.10;1.00
30150;DHT22;16962;48.646;9.026;2023-02-25T17:48:34;2.10;1.00
30150;DHT22;16962;48.646;9.026;2023-02-25T17:51:37;2.20;1.00
30150;DHT22;16962;48.646;9.026;2023-02-25T17:54:29;2.10;1.00
30150;DHT22;16962;48.646;9.026;2023-02-25T17:57:18;2.10;1.00
30150;DHT22;16962;48.646;9.026;2023-02-25T18:00:32;2.20;1.00
30150;DHT22;16962;48.646;9.026;2023-02-25T18:03:21;2.30;1.00
30150;DHT22;16962;48.646;9.026;2023-02-25T18:06:31;2.40;1.00
30150;DHT22;16962;48.646;9.026;2023-02-25T18:09:29;2.40;1.00
30150;DHT22;16962;48.646;9.026;2023-02-25T18:12:37;2.30;1.00
30150;DHT22;16962;48.646;9.026;2023-02-25T18:15:28;2.00;42.70
30150;DHT22;16962;48.646;9.026;2023-02-25T18:18:20;1.70;99.90
30150;DHT22;16962;48.646;9.026;2023-02-25T18:21:12;1.40;99.90
30150;DHT22;16962;48.646;9.026;2023-02-25T18:23:59;1.20;26.00
30150;DHT22;16962;48.646;9.026;2023-02-25T18:27:06;0.90;1.00
30150;DHT22;16962;48.646;9.026;2023-02-25T18:30:15;0.80;1.00
30150;DHT22;16962;48.646;9.026;2023-02-25T18:33:06;0.70;99.90
30150;DHT22;16962;48.646;9.026;2023-02-25T18:35:57;0.70;87.10
30150;DHT22;16962;48.646;9.026;2023-02-25T18:38:45;0.70;1.00
30150;DHT22;16962;48.646;9.026;2023-02-25T18:41:34;0.60;99.90
30150;DHT22;16962;48.646;9.026;2023-02-25T18:44:21;0.60;99.90
30150;DHT22;16962;48.646;9.026;2023-02-25T18:47:08;0.60;99.90
30150;DHT22;16962;48.646;9.026;2023-02-25T18:49:58;0.50;99.90
30150;DHT22;16962;48.646;9.026;2023-02-25T18:52:46;0.50;99.90
30150;DHT22;16962;48.646;9.026;2023-02-25T18:55:33;0.50;99.90
30150;DHT22;16962;48.646;9.026;2023-02-25T18:58:20;0.40;1.00
30150;DHT22;16962;48.646;9.026;2023-02-25T19:01:19;0.50;99.90
30150;DHT22;16962;48.646;9.026;2023-02-25T19:04:14;0.50;99.90
30150;DHT22;16962;48.646;9.026;2023-02-25T19:07:08;0.40;99.90
30150;DHT22;16962;48.646;9.026;2023-02-25T19:09:56;0.40;99.90
30150;DHT22;16962;48.646;9.026;2023-02-25T19:12:44;0.30;99.90
30150;DHT22;16962;48.646;9.026;2023-02-25T19:15:35;0.30;99.90
30150;DHT22;16962;48.646;9.026;2023-02-25T19:18:22;0.30;82.50
30150;DHT22;16962;48.646;9.026;2023-02-25T19:21:16;0.20;1.00
30150;DHT22;16962;48.646;9.026;2023-02-25T19:24:04;0.10;1.00
30150;DHT22;16962;48.646;9.026;2023-02-25T19:26:58;0.10;95.60
30150;DHT22;16962;48.646;9.026;2023-02-25T19:29:47;0.10;99.90
30150;DHT22;16962;48.646;9.026;2023-02-25T19:32:34;0.20;18.70
30150;DHT22;16962;48.646;9.026;2023-02-25T19:35:22;0.10;99.90
30150;DHT22;16962;48.646;9.026;2023-02-25T19:38:13;0.10;99.90
30150;DHT22;16962;48.646;9.026;2023-02-25T19:41:02;0.10;99.90
30150;DHT22;16962;48.646;9.026;2023-02-25T19:43:53;0.10;90.40
30150;DHT22;16962;48.646;9.026;2023-02-25T19:46:41;0.10;1.00
30150;DHT22;16962;48.646;9.026;2023-02-25T19:49:29;0.20;1.00
30150;DHT22;16962;48.646;9.026;2023-02-25T19:52:16;0.20;99.90
30150;DHT22;16962;48.646;9.026;2023-02-25T19:55:05;0.20;99.90
30150;DHT22;16962;48.646;9.026;2023-02-25T19:57:56;0.20;98.50
30150;DHT22;16962;48.646;9.026;2023-02-25T20:00:44;0.20;87.60
30150;DHT22;16962;48.646;9.026;2023-02-25T20:03:39;0.20;99.90
30150;DHT22;16962;48.646;9.026;2023-02-25T20:06:30;0.10;1.00
30150;DHT22;16962;48.646;9.026;2023-02-25T20:09:19;0.10;99.90
30150;DHT22;16962;48.646;9.026;2023-02-25T20:12:07;0.10;99.90
30150;DHT22;16962;48.646;9.026;2023-02-25T20:14:55;0.00;99.90
30150;DHT22;16962;48.646;9.026;2023-02-25T20:17:46;0.00;99.90
30150;DHT22;16962;48.646;9.026;2023-02-25T20:20:35;0.10;99.90
30150;DHT22;16962;48.646;9.026;2023-02-25T20:23:23;0.10;99.90
30150;DHT22;16962;48.646;9.026;2023-02-25T20:26:14;0.10;74.00
30150;DHT22;16962;48.646;9.026;2023-02-25T20:29:04;0.10;1.00
30150;DHT22;16962;48.646;9.026;2023-02-25T20:31:55;0.10;99.90
30150;DHT22;16962;48.646;9.026;2023-02-25T20:34:43;0.10;99.90
30150;DHT22;16962;48.646;9.026;2023-02-25T20:37:33;0.10;99.90
30150;DHT22;16962;48.646;9.026;2023-02-25T20:40:25;0.20;1.00
30150;DHT22;16962;48.646;9.026;2023-02-25T20:43:15;0.20;99.90
30150;DHT22;16962;48.646;9.026;2023-02-25T20:46:11;0.20;1.00
30150;DHT22;16962;48.646;9.026;2023-02-25T20:49:01;0.20;93.60
30150;DHT22;16962;48.646;9.026;2023-02-25T20:51:49;0.20;99.90
30150;DHT22;16962;48.646;9.026;2023-02-25T20:54:37;0.20;99.90
30150;DHT22;16962;48.646;9.026;2023-02-25T20:57:32;0.20;1.00
30150;DHT22;16962;48.646;9.026;2023-02-25T21:00:22;0.20;1.00
30150;DHT22;16962;48.646;9.026;2023-02-25T21:03:12;0.20;99.90
30150;DHT22;16962;48.646;9.026;2023-02-25T21:05:59;0.10;99.90
30150;DHT22;16962;48.646;9.026;2023-02-25T21:08:47;0.10;22.50
30150;DHT22;16962;48.646;9.026;2023-02-25T21:11:35;0.10;1.00
30150;DHT22;16962;48.646;9.026;2023-02-25T21:14:22;0.10;1.00
30150;DHT22;16962;48.646;9.026;2023-02-25T21:17:10;0.10;99.90
30150;DHT22;16962;48.646;9.026;2023-02-25T21:20:00;0.10;99.90
30150;DHT22;16962;48.646;9.026;2023-02-25T21:22:47;0.00;99.90
30150;DHT22;16962;48.646;9.026;2023-02-25T21:25:34;0.00;99.90
30150;DHT22;16962;48.646;9.026;2023-02-25T21:28:23;0.00;99.90
30150;DHT22;16962;48.646;9.026;2023-02-25T21:31:12;0.00;99.90
30150;DHT22;16962;48.646;9.026;2023-02-25T21:34:01;-0.10;87.30
30150;DHT22;16962;48.646;9.026;2023-02-25T21:36:49;-0.10;95.80
30150;DHT22;16962;48.646;9.026;2023-02-25T21:39:39;-0.10;38.30
30150;DHT22;16962;48.646;9.026;2023-02-25T21:42:29;-0.10;56.10
30150;DHT22;16962;48.646;9.026;2023-02-25T21:45:17;-0.10;31.00
30150;DHT22;16962;48.646;9.026;2023-02-25T21:48:04;-0.10;12.60
30150;DHT22;16962;48.646;9.026;2023-02-25T21:50:57;-0.10;35.60
30150;DHT22;16962;48.646;9.026;2023-02-25T21:53:44;-0.20;40.40
30150;DHT22;16962;48.646;9.026;2023-02-25T21:56:32;-0.20;39.10
30150;DHT22;16962;48.646;9.026;2023-02-25T21:59:22;-0.20;33.70
30150;DHT22;16962;48.646;9.026;2023-02-25T22:02:09;-0.20;21.30
30150;DHT22;16962;48.646;9.026;2023-02-25T22:04:57;-0.20;1.00
30150;DHT22;16962;48.646;9.026;2023-02-25T22:07:44;-0.20;1.00
30150;DHT22;16962;48.646;9.026;2023-02-25T22:10:32;-0.20;1.00
30150;DHT22;16962;48.646;9.026;2023-02-25T22:13:22;-0.30;1.00
30150;DHT22;16962;48.646;9.026;2023-02-25T22:16:10;-0.30;1.00
30150;DHT22;16962;48.646;9.026;2023-02-25T22:19:00;-0.30;1.00
30150;DHT22;16962;48.646;9.026;2023-02-25T22:21:47;-0.30;1.00
30150;DHT22;16962;48.646;9.026;2023-02-25T22:24:35;-0.40;1.00
30150;DHT22;16962;48.646;9.026;2023-02-25T22:27:22;-0.40;1.00
30150;DHT22;16962;48.646;9.026;2023-02-25T22:30:10;-0.40;1.00
30150;DHT22;16962;48.646;9.026;2023-02-25T22:32:57;-0.40;99.90
30150;DHT22;16962;48.646;9.026;2023-02-25T22:36:02;-0.40;99.90
30150;DHT22;16962;48.646;9.026;2023-02-25T22:38:49;-0.40;99.90
30150;DHT22;16962;48.646;9.026;2023-02-25T22:41:37;-0.40;99.90
30150;DHT22;16962;48.646;9.026;2023-02-25T22:44:24;-0.40;99.90
30150;DHT22;16962;48.646;9.026;2023-02-25T22:47:11;-0.40;99.90
30150;DHT22;16962;48.646;9.026;2023-02-25T22:49:59;-0.40;99.90
30150;DHT22;16962;48.646;9.026;2023-02-25T22:52:49;-0.40;99.90
30150;DHT22;16962;48.646;9.026;2023-02-25T22:55:37;-0.40;99.90
30150;DHT22;16962;48.646;9.026;2023-02-25T22:58:25;-0.50;99.90
30150;DHT22;16962;48.646;9.026;2023-02-25T23:01:17;-0.50;99.90
30150;DHT22;16962;48.646;9.026;2023-02-25T23:04:06;-0.50;99.90
30150;DHT22;16962;48.646;9.026;2023-02-25T23:06:55;-0.50;99.90
30150;DHT22;16962;48.646;9.026;2023-02-25T23:09:43;-0.50;99.90
30150;DHT22;16962;48.646;9.026;2023-02-25T23:12:34;-0.50;99.90
30150;DHT22;16962;48.646;9.026;2023-02-25T23:15:23;-0.60;99.90
30150;DHT22;16962;48.646;9.026;2023-02-25T23:18:10;-0.50;99.90
30150;DHT22;16962;48.646;9.026;2023-02-25T23:21:02;-0.60;99.90
30150;DHT22;16962;48.646;9.026;2023-02-25T23:23:53;-0.60;99.90
30150;DHT22;16962;48.646;9.026;2023-02-25T23:26:42;-0.70;99.90
30150;DHT22;16962;48.646;9.026;2023-02-25T23:29:30;-0.70;99.90
30150;DHT22;16962;48.646;9.026;2023-02-25T23:32:18;-0.70;99.90
30150;DHT22;16962;48.646;9.026;2023-02-25T23:35:06;-0.70;99.90
30150;DHT22;16962;48.646;9.026;2023-02-25T23:37:53;-0.80;99.90
30150;DHT22;16962;48.646;9.026;2023-02-25T23:40:41;-0.90;99.90
30150;DHT22;16962;48.646;9.026;2023-02-25T23:43:31;-0.90;99.90